createdAt,value
2022-10-08T00:01:53.281Z,11.89
2022-10-08T00:04:19.895Z,11.80
2022-10-08T00:06:46.424Z,11.73
2022-10-08T00:09:13.015Z,11.74
2022-10-08T00:11:40.732Z,11.73
2022-10-08T00:14:08.310Z,11.72
2022-10-08T00:16:38.672Z,11.75
2022-10-08T00:19:08.577Z,11.73
2022-10-08T00:21:38.325Z,11.70
2022-10-08T00:24:06.715Z,11.65
2022-10-08T00:26:38.542Z,11.58
2022-10-08T00:29:09.747Z,11.53
2022-10-08T00:31:40.937Z,11.45
2022-10-08T00:34:11.204Z,11.47
2022-10-08T00:36:39.764Z,11.39
2022-10-08T00:39:11.319Z,11.34
2022-10-08T00:41:38.610Z,11.29
2022-10-08T00:44:42.352Z,11.20
2022-10-08T00:47:20.230Z,11.20
2022-10-08T00:49:49.247Z,11.03
2022-10-08T00:52:17.296Z,10.93
2022-10-08T00:54:44.909Z,10.84
2022-10-08T00:57:11.983Z,10.85
2022-10-08T00:59:39.121Z,10.78
2022-10-08T01:02:08.456Z,10.86
2022-10-08T01:04:37.648Z,10.78
2022-10-08T01:07:07.015Z,10.63
2022-10-08T01:09:53.322Z,10.52
2022-10-08T01:12:25.786Z,10.44
2022-10-08T01:14:57.789Z,10.54
2022-10-08T01:17:33.439Z,10.56
2022-10-08T01:20:30.425Z,10.51
2022-10-08T01:23:30.184Z,10.43
2022-10-08T01:26:17.153Z,10.24
2022-10-08T01:28:51.568Z,10.09
2022-10-08T01:31:23.971Z,9.99
2022-10-08T01:33:54.479Z,9.83
2022-10-08T01:36:23.581Z,9.72
2022-10-08T01:39:00.486Z,9.57
2022-10-08T01:41:31.198Z,9.65
2022-10-08T01:44:09.782Z,9.67
2022-10-08T01:46:41.045Z,9.64
2022-10-08T01:49:12.675Z,9.65
2022-10-08T01:51:51.402Z,9.61
2022-10-08T01:54:19.592Z,9.52
2022-10-08T01:56:48.929Z,9.52
2022-10-08T01:59:20.589Z,9.41
2022-10-08T02:01:53.339Z,9.37
2022-10-08T02:04:37.230Z,9.31
2022-10-08T02:07:30.067Z,9.36
2022-10-08T02:10:13.652Z,9.35
2022-10-08T02:12:40.606Z,9.20
2022-10-08T02:15:21.308Z,9.29
2022-10-08T02:17:58.840Z,9.33
2022-10-08T02:20:36.818Z,9.30
2022-10-08T02:23:13.502Z,9.32
2022-10-08T02:25:58.678Z,9.30
2022-10-08T02:28:40.275Z,9.29
2022-10-08T02:31:17.962Z,9.36
2022-10-08T02:33:51.616Z,9.58
2022-10-08T02:36:22.487Z,9.64
2022-10-08T02:38:56.342Z,9.65
2022-10-08T02:41:30.407Z,9.61
2022-10-08T02:44:00.498Z,9.55
2022-10-08T02:46:31.692Z,9.47
2022-10-08T02:49:10.751Z,9.38
2022-10-08T02:51:41.525Z,9.12
2022-10-08T02:54:09.341Z,9.09
2022-10-08T02:56:57.034Z,9.01
2022-10-08T02:59:25.220Z,8.95
2022-10-08T03:02:00.562Z,8.87
2022-10-08T03:04:45.703Z,8.66
2022-10-08T03:07:13.703Z,8.59
2022-10-08T03:09:44.060Z,8.49
2022-10-08T03:12:10.789Z,8.48
2022-10-08T03:14:43.777Z,8.62
2022-10-08T03:17:14.307Z,8.71
2022-10-08T03:19:40.856Z,8.69
2022-10-08T03:22:08.085Z,8.77
2022-10-08T03:24:35.955Z,8.84
2022-10-08T03:27:02.891Z,8.84
2022-10-08T03:29:29.460Z,8.85
2022-10-08T03:31:55.991Z,8.93
2022-10-08T03:34:25.038Z,8.97
2022-10-08T03:36:51.595Z,9.04
2022-10-08T03:39:18.236Z,9.01
2022-10-08T03:41:44.760Z,8.96
2022-10-08T03:44:12.452Z,8.95
2022-10-08T03:46:39.170Z,8.93
2022-10-08T03:49:05.748Z,8.94
2022-10-08T03:51:32.386Z,8.86
2022-10-08T03:53:58.944Z,8.77
2022-10-08T03:56:25.540Z,8.68
2022-10-08T03:58:54.819Z,8.54
2022-10-08T04:01:21.799Z,8.45
2022-10-08T04:03:48.508Z,8.41
2022-10-08T04:06:15.608Z,8.38
2022-10-08T04:08:42.247Z,8.27
2022-10-08T04:11:13.855Z,8.16
2022-10-08T04:13:40.889Z,7.99
2022-10-08T04:16:13.474Z,8.05
2022-10-08T04:18:40.672Z,8.02
2022-10-08T04:21:09.328Z,8.01
2022-10-08T04:23:38.156Z,7.93
2022-10-08T04:26:05.556Z,7.91
2022-10-08T04:28:36.199Z,7.99
2022-10-08T04:31:07.838Z,8.01
2022-10-08T04:33:35.369Z,7.98
2022-10-08T04:36:01.774Z,7.91
2022-10-08T04:38:28.907Z,7.90
2022-10-08T04:41:06.582Z,7.89
2022-10-08T04:43:34.127Z,7.96
2022-10-08T04:46:00.799Z,8.01
2022-10-08T04:48:27.650Z,8.02
2022-10-08T04:50:58.936Z,8.01
2022-10-08T04:53:28.631Z,7.94
2022-10-08T04:55:56.064Z,7.85
2022-10-08T04:58:23.409Z,7.76
2022-10-08T05:00:49.967Z,7.73
2022-10-08T05:03:16.553Z,7.69
2022-10-08T05:05:45.791Z,7.73
2022-10-08T05:08:12.909Z,7.79
2022-10-08T05:10:39.662Z,7.78
2022-10-08T05:13:06.183Z,7.71
2022-10-08T05:15:35.251Z,7.66
2022-10-08T05:18:01.920Z,7.65
2022-10-08T05:20:28.445Z,7.62
2022-10-08T05:22:54.975Z,7.67
2022-10-08T05:25:21.543Z,7.73
2022-10-08T05:27:48.068Z,7.88
2022-10-08T05:30:17.517Z,7.98
2022-10-08T05:32:47.946Z,7.93
2022-10-08T05:35:14.827Z,7.86
2022-10-08T05:37:41.385Z,7.93
2022-10-08T05:40:08.193Z,8.19
2022-10-08T05:42:34.777Z,8.43
2022-10-08T05:45:01.326Z,8.73
2022-10-08T05:47:27.868Z,9.20
2022-10-08T05:49:54.390Z,9.79
2022-10-08T05:52:20.918Z,10.32
2022-10-08T05:54:47.460Z,10.67
2022-10-08T05:57:14.063Z,11.09
2022-10-08T05:59:40.619Z,11.67
2022-10-08T06:02:07.231Z,12.23
2022-10-08T06:04:33.778Z,12.59
2022-10-08T06:07:00.354Z,12.79
2022-10-08T06:09:26.904Z,13.12
2022-10-08T06:11:53.592Z,13.41
2022-10-08T06:14:20.559Z,13.68
2022-10-08T06:16:47.197Z,13.98
2022-10-08T06:19:14.146Z,14.25
2022-10-08T06:21:41.193Z,14.26
2022-10-08T06:24:10.402Z,14.40
2022-10-08T06:26:39.357Z,14.56
2022-10-08T06:29:07.162Z,14.73
2022-10-08T06:31:35.626Z,14.94
2022-10-08T06:34:05.237Z,15.10
2022-10-08T06:36:33.567Z,15.20
2022-10-08T06:39:02.670Z,15.12
2022-10-08T06:41:35.478Z,15.22
2022-10-08T06:44:04.267Z,15.27
2022-10-08T06:46:32.470Z,15.67
2022-10-08T06:49:00.790Z,16.17
2022-10-08T06:51:28.459Z,16.45
2022-10-08T06:53:59.402Z,16.80
2022-10-08T06:56:29.080Z,16.83
2022-10-08T06:58:55.658Z,16.68
2022-10-08T07:01:31.858Z,16.49
2022-10-08T07:04:00.844Z,16.46
2022-10-08T07:06:28.318Z,16.81
2022-10-08T07:08:55.978Z,16.58
2022-10-08T07:11:23.197Z,16.58
2022-10-08T07:13:49.778Z,16.68
2022-10-08T07:16:21.635Z,16.59
2022-10-08T07:18:50.428Z,16.72
2022-10-08T07:21:19.043Z,16.21
2022-10-08T07:23:45.786Z,16.28
2022-10-08T07:26:13.572Z,16.45
2022-10-08T07:28:48.333Z,16.17
2022-10-08T07:31:18.525Z,16.30
2022-10-08T07:33:45.094Z,16.32
2022-10-08T07:36:20.112Z,16.59
2022-10-08T07:38:48.143Z,17.02
2022-10-08T07:41:15.137Z,17.17
2022-10-08T07:43:41.750Z,17.49
2022-10-08T07:46:09.710Z,17.48
2022-10-08T07:48:36.682Z,17.22
2022-10-08T07:51:16.306Z,17.15
2022-10-08T07:53:43.611Z,17.48
2022-10-08T07:56:11.935Z,17.92
2022-10-08T07:58:39.422Z,18.02
2022-10-08T08:01:08.830Z,18.40
2022-10-08T08:03:35.884Z,19.04
2022-10-08T08:06:03.573Z,19.15
2022-10-08T08:08:30.413Z,19.04
2022-10-08T08:11:01.408Z,19.17
2022-10-08T08:13:31.877Z,19.83
2022-10-08T08:16:08.699Z,19.95
2022-10-08T08:18:37.906Z,20.28
2022-10-08T08:21:13.536Z,20.80
2022-10-08T08:23:42.968Z,21.01
2022-10-08T08:26:16.033Z,21.50
2022-10-08T08:28:43.033Z,21.68
2022-10-08T08:31:18.882Z,22.10
2022-10-08T08:33:54.234Z,22.80
2022-10-08T08:36:24.628Z,23.28
2022-10-08T08:38:51.200Z,23.05
2022-10-08T08:41:27.228Z,22.41
2022-10-08T08:44:08.639Z,22.94
2022-10-08T08:46:42.239Z,22.94
2022-10-08T08:49:25.975Z,23.20
2022-10-08T08:51:53.477Z,23.33
2022-10-08T08:54:21.091Z,23.92
2022-10-08T08:56:48.779Z,23.91
2022-10-08T08:59:25.563Z,25.16
2022-10-08T09:01:58.166Z,24.98
2022-10-08T09:04:33.587Z,25.60
2022-10-08T09:07:03.931Z,26.54
2022-10-08T09:09:42.860Z,26.57
2022-10-08T09:12:35.109Z,27.26
2022-10-08T09:15:02.965Z,28.20
2022-10-08T09:17:39.001Z,27.93
2022-10-08T09:20:06.000Z,27.37
2022-10-08T09:22:40.627Z,26.26
2022-10-08T09:25:15.394Z,25.11
2022-10-08T09:27:53.307Z,24.45
2022-10-08T09:30:35.277Z,23.60
2022-10-08T09:33:32.146Z,23.29
2022-10-08T09:35:59.505Z,22.96
2022-10-08T09:38:36.024Z,22.88
2022-10-08T09:41:17.500Z,22.69
2022-10-08T09:43:45.592Z,22.71
2022-10-08T09:46:30.868Z,22.58
2022-10-08T09:49:19.391Z,22.34
2022-10-08T09:51:46.076Z,22.28
2022-10-08T09:54:17.020Z,22.24
2022-10-08T09:56:53.214Z,22.20
2022-10-08T09:59:22.865Z,22.21
2022-10-08T10:01:49.729Z,22.39
2022-10-08T10:04:37.650Z,22.45
2022-10-08T10:07:05.504Z,22.48
2022-10-08T10:09:47.887Z,22.62
2022-10-08T10:12:19.886Z,22.76
2022-10-08T10:15:09.642Z,22.59
2022-10-08T10:17:54.146Z,22.30
2022-10-08T10:20:27.454Z,22.29
2022-10-08T10:22:59.117Z,22.22
2022-10-08T10:25:38.347Z,22.43
2022-10-08T10:28:13.561Z,22.57
2022-10-08T10:30:52.200Z,22.68
2022-10-08T10:33:27.733Z,22.76
2022-10-08T10:35:59.355Z,22.81
2022-10-08T10:38:28.950Z,23.03
2022-10-08T10:41:01.379Z,23.11
2022-10-08T10:43:43.026Z,23.08
2022-10-08T10:46:31.882Z,23.18
2022-10-08T10:48:59.543Z,23.28
2022-10-08T10:51:46.644Z,23.18
2022-10-08T10:54:41.859Z,23.11
2022-10-08T10:57:35.089Z,23.19
2022-10-08T11:00:04.407Z,23.42
2022-10-08T11:02:50.161Z,23.34
2022-10-08T11:05:25.173Z,23.47
2022-10-08T11:08:27.039Z,23.54
2022-10-08T11:11:05.624Z,23.66
2022-10-08T11:13:35.157Z,23.55
2022-10-08T11:16:33.077Z,23.70
2022-10-08T11:19:03.190Z,23.99
2022-10-08T11:21:48.525Z,23.96
2022-10-08T11:24:39.765Z,23.92
2022-10-08T11:27:38.473Z,24.10
2022-10-08T11:30:41.320Z,24.43
2022-10-08T11:33:13.099Z,24.55
2022-10-08T11:35:58.341Z,24.53
2022-10-08T11:38:48.580Z,24.51
2022-10-08T11:41:24.682Z,24.23
2022-10-08T11:43:58.716Z,24.12
2022-10-08T11:46:30.705Z,24.33
2022-10-08T11:49:02.418Z,24.45
2022-10-08T11:51:34.872Z,24.49
2022-10-08T11:54:15.317Z,24.56
2022-10-08T11:56:47.998Z,24.79
2022-10-08T11:59:26.619Z,24.81
2022-10-08T12:02:02.820Z,24.82
2022-10-08T12:04:37.590Z,24.83
2022-10-08T12:07:26.199Z,24.78
2022-10-08T12:10:21.324Z,24.83
2022-10-08T12:12:50.775Z,25.01
2022-10-08T12:15:23.711Z,25.00
2022-10-08T12:17:59.056Z,24.97
2022-10-08T12:20:34.135Z,24.83
2022-10-08T12:23:10.909Z,24.84
2022-10-08T12:25:39.411Z,24.91
2022-10-08T12:28:21.067Z,24.87
2022-10-08T12:30:56.058Z,24.84
2022-10-08T12:33:24.729Z,24.78
2022-10-08T12:36:09.898Z,24.83
2022-10-08T12:38:46.199Z,24.75
2022-10-08T12:41:24.425Z,24.76
2022-10-08T12:44:01.577Z,24.88
2022-10-08T12:46:50.822Z,24.83
2022-10-08T12:49:38.456Z,24.80
2022-10-08T12:52:14.631Z,24.82
2022-10-08T12:54:49.405Z,24.65
2022-10-08T12:57:22.439Z,24.57
2022-10-08T12:59:50.550Z,24.58
2022-10-08T13:02:32.347Z,24.63
2022-10-08T13:04:58.901Z,24.52
2022-10-08T13:07:28.545Z,24.41
2022-10-08T13:09:57.577Z,24.31
2022-10-08T13:12:24.515Z,24.27
2022-10-08T13:15:08.718Z,24.26
2022-10-08T13:17:36.808Z,24.26
2022-10-08T13:20:23.604Z,24.35
2022-10-08T13:22:50.179Z,24.41
2022-10-08T13:25:41.253Z,24.53
2022-10-08T13:28:41.835Z,24.62
2022-10-08T13:31:24.872Z,24.66
2022-10-08T13:33:51.824Z,24.75
2022-10-08T13:36:23.365Z,24.73
2022-10-08T13:38:50.099Z,24.62
2022-10-08T13:41:23.894Z,24.51
2022-10-08T13:43:50.752Z,24.39
2022-10-08T13:46:17.345Z,24.30
2022-10-08T13:48:44.678Z,24.22
2022-10-08T13:51:11.319Z,24.12
2022-10-08T13:53:37.903Z,24.05
2022-10-08T13:56:05.709Z,23.92
2022-10-08T13:58:32.811Z,23.85
2022-10-08T14:00:59.360Z,23.88
2022-10-08T14:03:25.929Z,23.91
2022-10-08T14:05:52.550Z,23.86
2022-10-08T14:08:25.407Z,23.79
2022-10-08T14:10:58.136Z,23.82
2022-10-08T14:13:25.661Z,23.76
2022-10-08T14:15:52.340Z,23.72
2022-10-08T14:18:18.957Z,23.64
2022-10-08T14:20:45.872Z,23.58
2022-10-08T14:23:13.552Z,23.38
2022-10-08T14:25:40.171Z,23.31
2022-10-08T14:28:08.792Z,23.18
2022-10-08T14:30:36.433Z,23.08
2022-10-08T14:33:04.757Z,22.87
2022-10-08T14:35:34.274Z,22.68
2022-10-08T14:38:00.778Z,22.58
2022-10-08T14:40:27.375Z,22.58
2022-10-08T14:42:53.957Z,22.44
2022-10-08T14:45:20.697Z,22.32
2022-10-08T14:47:47.416Z,22.09
2022-10-08T14:50:14.295Z,21.96
2022-10-08T14:52:44.582Z,21.72
2022-10-08T14:55:11.934Z,21.48
2022-10-08T14:57:38.511Z,21.13
2022-10-08T15:00:06.633Z,20.85
2022-10-08T15:02:34.492Z,20.71
2022-10-08T15:05:01.837Z,20.49
2022-10-08T15:07:28.736Z,20.32
2022-10-08T15:09:55.336Z,20.14
2022-10-08T15:12:21.885Z,19.99
2022-10-08T15:14:48.493Z,19.70
2022-10-08T15:17:15.021Z,19.38
2022-10-08T15:19:41.546Z,19.26
2022-10-08T15:22:08.114Z,19.17
2022-10-08T15:24:34.707Z,19.10
2022-10-08T15:27:01.339Z,19.03
2022-10-08T15:29:27.924Z,18.80
2022-10-08T15:31:54.524Z,18.57
2022-10-08T15:34:21.508Z,18.29
2022-10-08T15:36:48.199Z,17.98
2022-10-08T15:39:20.216Z,17.85
2022-10-08T15:41:49.442Z,17.55
2022-10-08T15:44:18.798Z,17.42
2022-10-08T15:46:46.335Z,17.20
2022-10-08T15:49:13.567Z,17.11
2022-10-08T15:51:40.264Z,17.06
2022-10-08T15:54:07.327Z,16.98
2022-10-08T15:56:34.351Z,16.84
2022-10-08T15:59:02.286Z,16.73
2022-10-08T16:01:29.834Z,16.57
2022-10-08T16:03:57.727Z,16.54
2022-10-08T16:06:32.211Z,16.44
2022-10-08T16:08:59.610Z,16.48
2022-10-08T16:11:27.481Z,16.48
2022-10-08T16:13:58.574Z,16.41
2022-10-08T16:16:25.209Z,16.32
2022-10-08T16:18:57.612Z,16.36
2022-10-08T16:21:24.695Z,16.29
2022-10-08T16:23:51.268Z,16.17
2022-10-08T16:26:22.460Z,16.08
2022-10-08T16:28:51.435Z,16.08
2022-10-08T16:31:18.942Z,16.18
2022-10-08T16:33:46.254Z,16.22
2022-10-08T16:36:14.641Z,16.25
2022-10-08T16:38:41.666Z,16.12
2022-10-08T16:41:17.443Z,16.18
2022-10-08T16:43:49.412Z,16.01
2022-10-08T16:46:36.511Z,15.70
2022-10-08T16:49:13.814Z,15.57
2022-10-08T16:51:40.852Z,15.34
2022-10-08T16:54:10.771Z,15.29
2022-10-08T16:56:39.134Z,15.29
2022-10-08T16:59:08.573Z,15.35
2022-10-08T17:01:38.327Z,15.29
2022-10-08T17:04:06.802Z,15.27
2022-10-08T17:06:34.256Z,15.21
2022-10-08T17:09:00.666Z,15.32
2022-10-08T17:11:27.267Z,15.31
2022-10-08T17:13:56.210Z,15.10
2022-10-08T17:16:24.780Z,14.98
2022-10-08T17:18:53.118Z,14.91
2022-10-08T17:21:20.480Z,14.82
2022-10-08T17:23:47.477Z,14.72
2022-10-08T17:26:17.671Z,14.56
2022-10-08T17:28:45.900Z,14.31
2022-10-08T17:31:15.883Z,14.25
2022-10-08T17:33:43.116Z,14.22
2022-10-08T17:36:14.270Z,14.27
2022-10-08T17:38:42.784Z,14.36
2022-10-08T17:41:24.492Z,14.46
2022-10-08T17:43:51.792Z,14.50
2022-10-08T17:46:21.647Z,14.57
2022-10-08T17:48:48.443Z,14.53
2022-10-08T17:51:20.120Z,14.58
2022-10-08T17:53:56.050Z,14.62
2022-10-08T17:56:23.962Z,14.58
2022-10-08T17:58:51.014Z,14.46
2022-10-08T18:01:26.889Z,14.31
2022-10-08T18:03:55.152Z,14.34
2022-10-08T18:06:22.715Z,14.29
2022-10-08T18:08:53.708Z,14.14
2022-10-08T18:11:20.255Z,14.13
2022-10-08T18:13:46.842Z,14.02
2022-10-08T18:16:15.769Z,13.76
2022-10-08T18:18:43.613Z,13.61
2022-10-08T18:21:15.260Z,13.57
2022-10-08T18:23:42.949Z,13.59
2022-10-08T18:26:10.908Z,13.62
2022-10-08T18:28:38.316Z,13.66
2022-10-08T18:31:06.272Z,13.55
2022-10-08T18:33:33.989Z,13.45
2022-10-08T18:36:14.917Z,13.52
2022-10-08T18:38:43.130Z,13.37
2022-10-08T18:41:17.184Z,13.31
2022-10-08T18:43:45.354Z,13.23
2022-10-08T18:46:13.891Z,13.17
2022-10-08T18:48:40.616Z,13.02
2022-10-08T18:51:19.968Z,12.84
2022-10-08T18:53:46.592Z,12.69
2022-10-08T18:56:19.954Z,12.75
2022-10-08T18:58:47.185Z,12.86
2022-10-08T19:01:22.772Z,12.98
2022-10-08T19:03:51.778Z,13.04
2022-10-08T19:06:20.603Z,12.99
2022-10-08T19:08:47.424Z,12.81
2022-10-08T19:11:19.372Z,12.80
2022-10-08T19:13:46.512Z,12.77
2022-10-08T19:16:13.860Z,12.78
2022-10-08T19:18:44.115Z,12.73
2022-10-08T19:21:13.135Z,12.70
2022-10-08T19:23:39.921Z,12.65
2022-10-08T19:26:06.608Z,12.61
2022-10-08T19:28:36.985Z,12.53
2022-10-08T19:31:17.282Z,12.52
2022-10-08T19:33:51.432Z,12.48
2022-10-08T19:36:19.275Z,12.51
2022-10-08T19:38:59.682Z,12.43
2022-10-08T19:41:27.383Z,12.15
2022-10-08T19:43:55.673Z,12.15
2022-10-08T19:46:23.379Z,11.85
2022-10-08T19:48:51.218Z,11.53
2022-10-08T19:51:18.759Z,11.53
2022-10-08T19:53:47.117Z,11.55
2022-10-08T19:56:14.330Z,11.42
2022-10-08T19:58:47.589Z,11.42
2022-10-08T20:01:18.215Z,11.52
2022-10-08T20:03:45.406Z,11.61
2022-10-08T20:06:24.005Z,11.60
2022-10-08T20:08:54.579Z,11.49
2022-10-08T20:11:22.254Z,11.42
2022-10-08T20:13:50.667Z,11.38
2022-10-08T20:16:23.728Z,11.46
2022-10-08T20:18:59.570Z,11.55
2022-10-08T20:21:27.835Z,11.65
2022-10-08T20:23:54.776Z,11.69
2022-10-08T20:26:21.235Z,11.76
2022-10-08T20:28:53.989Z,11.73
2022-10-08T20:31:22.998Z,11.72
2022-10-08T20:33:56.621Z,11.65
2022-10-08T20:36:24.207Z,11.69
2022-10-08T20:38:50.846Z,11.74
2022-10-08T20:41:17.783Z,11.66
2022-10-08T20:43:44.364Z,11.54
2022-10-08T20:46:13.141Z,11.39
2022-10-08T20:48:42.187Z,11.24
2022-10-08T20:51:20.755Z,11.29
2022-10-08T20:53:51.996Z,11.35
2022-10-08T20:56:19.148Z,11.40
2022-10-08T20:58:45.848Z,11.39
2022-10-08T21:01:15.797Z,11.30
2022-10-08T21:03:44.320Z,11.13
2022-10-08T21:06:13.956Z,10.87
2022-10-08T21:08:42.827Z,10.67
2022-10-08T21:11:14.024Z,10.60
2022-10-08T21:13:41.092Z,10.49
2022-10-08T21:16:14.226Z,10.49
2022-10-08T21:18:41.375Z,10.43
2022-10-08T21:21:10.634Z,10.37
2022-10-08T21:23:37.539Z,10.44
2022-10-08T21:26:07.273Z,10.54
2022-10-08T21:28:34.239Z,10.61
2022-10-08T21:31:04.159Z,10.67
2022-10-08T21:33:34.182Z,10.77
2022-10-08T21:36:00.910Z,10.82
2022-10-08T21:38:27.469Z,10.88
2022-10-08T21:40:55.854Z,10.90
2022-10-08T21:43:22.573Z,10.92
2022-10-08T21:46:00.623Z,10.95
2022-10-08T21:48:28.702Z,10.93
2022-10-08T21:51:06.993Z,10.92
2022-10-08T21:53:35.480Z,10.79
2022-10-08T21:56:05.445Z,10.74
2022-10-08T21:58:36.935Z,10.70
2022-10-08T22:01:04.350Z,10.70
2022-10-08T22:03:30.913Z,10.63
2022-10-08T22:06:00.651Z,10.46
2022-10-08T22:08:29.201Z,10.52
2022-10-08T22:10:56.575Z,10.41
2022-10-08T22:13:23.386Z,10.37
2022-10-08T22:15:54.796Z,10.33
2022-10-08T22:18:22.727Z,10.21
2022-10-08T22:20:49.539Z,10.13
2022-10-08T22:23:16.556Z,10.11
2022-10-08T22:25:51.383Z,10.10
2022-10-08T22:28:17.964Z,10.10
2022-10-08T22:30:44.586Z,10.01
2022-10-08T22:33:11.227Z,9.90
2022-10-08T22:35:37.785Z,9.91
2022-10-08T22:38:04.667Z,9.87
2022-10-08T22:40:31.337Z,9.85
2022-10-08T22:42:57.869Z,9.98
2022-10-08T22:45:24.475Z,10.03
2022-10-08T22:47:51.488Z,10.01
2022-10-08T22:50:18.543Z,10.06
2022-10-08T22:52:47.274Z,10.03
2022-10-08T22:55:17.067Z,9.90
2022-10-08T22:57:44.204Z,9.88
2022-10-08T23:00:11.894Z,9.83
2022-10-08T23:02:38.566Z,9.84
2022-10-08T23:05:05.606Z,9.87
2022-10-08T23:07:32.121Z,9.85
2022-10-08T23:09:58.754Z,9.83
2022-10-08T23:12:25.296Z,9.83
2022-10-08T23:14:51.894Z,9.90
2022-10-08T23:17:18.511Z,9.90
2022-10-08T23:19:45.082Z,9.84
2022-10-08T23:22:11.669Z,9.81
2022-10-08T23:24:38.211Z,9.78
2022-10-08T23:27:09.353Z,9.65
2022-10-08T23:29:36.206Z,9.61
2022-10-08T23:32:02.806Z,9.64
2022-10-08T23:34:29.424Z,9.70
2022-10-08T23:36:55.953Z,9.75
2022-10-08T23:39:22.578Z,9.74
2022-10-08T23:41:49.122Z,9.64
2022-10-08T23:44:15.688Z,9.60
2022-10-08T23:46:42.212Z,9.61
2022-10-08T23:49:08.946Z,9.58
2022-10-08T23:51:36.041Z,9.47
2022-10-08T23:54:02.595Z,9.36
2022-10-08T23:56:29.600Z,9.38
2022-10-08T23:58:56.486Z,9.37
